Time;durP1;ratioP1;P1;durP2;ratioP2;P2;SDS_P1;SDS_P2;PMS_P1;PMS_P2;Temp;Humidity;BMP_temperature;BMP_pressure;BME280_temperature;BME280_humidity;BME280_pressure;Samples;Min_cycle;Max_cycle;Signal;HPM_P1;HPM_P2
2023/01/09 00:01:09;;;;;;;23.23;10.25;;;;;;;-12.25;59.17;101487.34;5074363;28;20453;-55
2023/01/09 00:03:34;;;;;;;27.92;9.80;;;;;;;-12.27;59.48;101489.91;5074146;28;20052;-57
2023/01/09 00:06:00;;;;;;;22.52;9.75;;;;;;;-12.21;59.17;101491.81;5074644;28;20452;-60
2023/01/09 00:08:25;;;;;;;28.30;10.77;;;;;;;-12.15;58.70;101496.34;5074728;28;20112;-56
2023/01/09 00:10:51;;;;;;;21.17;8.18;;;;;;;-12.11;58.68;101487.88;5073636;28;20355;-54
2023/01/09 00:13:17;;;;;;;22.65;9.25;;;;;;;-12.26;58.47;101483.00;5074092;28;20109;-57
2023/01/09 00:15:42;;;;;;;25.77;10.25;;;;;;;-12.41;59.12;101484.19;5074475;28;20036;-55
2023/01/09 00:18:07;;;;;;;25.38;9.95;;;;;;;-12.57;59.48;101480.06;5073876;28;20029;-56
2023/01/09 00:20:35;;;;;;;24.00;9.90;;;;;;;-12.51;59.70;101487.19;5074078;28;20081;-54
2023/01/09 00:23:00;;;;;;;26.27;10.55;;;;;;;-12.45;59.12;101491.72;5074237;28;20367;-56
2023/01/09 00:25:26;;;;;;;23.27;9.52;;;;;;;-12.82;59.41;101439.50;5073768;28;20036;-57
2023/01/09 00:27:51;;;;;;;19.90;7.57;;;;;;;-12.47;59.40;101498.53;5073880;28;20036;-54
2023/01/09 00:30:17;;;;;;;25.83;10.95;;;;;;;-12.71;60.03;101497.56;5074298;28;20035;-52
2023/01/09 00:32:42;;;;;;;22.92;9.57;;;;;;;-12.76;60.38;101493.94;5072898;28;20045;-53
2023/01/09 00:35:12;;;;;;;26.33;9.70;;;;;;;-12.98;60.06;101463.78;5073509;28;20068;-52
2023/01/09 00:37:38;;;;;;;23.33;9.98;;;;;;;-12.74;60.21;101504.31;5073234;28;20035;-52
2023/01/09 00:40:03;;;;;;;18.48;8.90;;;;;;;-12.81;60.14;101510.03;5073964;28;20024;-55
2023/01/09 00:42:32;;;;;;;24.35;9.20;;;;;;;-12.81;59.96;101504.84;5071956;28;20090;-57
2023/01/09 00:45:03;;;;;;;21.88;8.98;;;;;;;-12.91;60.36;101501.91;5070676;28;20032;-60
2023/01/09 00:47:34;;;;;;;19.58;7.65;;;;;;;-12.82;60.08;101498.84;5070595;28;20411;-55
2023/01/09 00:50:03;;;;;;;18.92;8.02;;;;;;;-12.94;59.69;101485.41;5071360;28;20039;-60
2023/01/09 00:52:32;;;;;;;21.08;8.43;;;;;;;-13.02;59.84;101490.25;5071328;28;20133;-61
2023/01/09 00:54:59;;;;;;;22.67;9.90;;;;;;;-13.21;60.34;101486.00;5070570;28;20151;-58
2023/01/09 00:57:24;;;;;;;21.05;8.75;;;;;;;-13.49;60.23;101459.06;5071358;28;20448;-59
2023/01/09 00:59:51;;;;;;;23.50;10.43;;;;;;;-13.50;59.98;101453.03;5072615;28;20037;-60
2023/01/09 01:02:17;;;;;;;17.58;8.13;;;;;;;-13.36;60.19;101486.22;5072517;28;20043;-57
2023/01/09 01:07:38;;;;;;;18.58;8.05;;;;;;;-13.25;59.75;101485.00;5073298;28;20093;-56
2023/01/09 01:10:07;;;;;;;23.08;10.60;;;;;;;-13.36;59.14;101481.06;5073101;28;20325;-62
2023/01/09 01:12:33;;;;;;;21.15;9.52;;;;;;;-13.72;59.56;101449.50;5073080;28;20032;-58
2023/01/09 01:14:58;;;;;;;24.83;10.50;;;;;;;-13.61;60.40;101482.59;5072923;28;20093;-54
2023/01/09 01:17:24;;;;;;;19.60;9.77;;;;;;;-13.72;60.52;101488.16;5073242;28;20031;-59
2023/01/09 01:19:49;;;;;;;22.75;9.35;;;;;;;-13.60;60.03;101497.22;5073300;28;20460;-57
2023/01/09 01:22:15;;;;;;;21.65;8.32;;;;;;;-13.67;59.43;101488.34;5072746;28;20040;-57
2023/01/09 01:24:40;;;;;;;23.58;8.25;;;;;;;-13.79;60.03;101504.09;5072385;28;20028;-57
2023/01/09 01:27:06;;;;;;;13.75;5.53;;;;;;;-13.74;58.97;101515.53;5072678;28;20345;-60
2023/01/09 01:29:31;;;;;;;20.48;9.18;;;;;;;-14.02;59.43;101508.22;5072810;28;20032;-57
2023/01/09 01:31:57;;;;;;;21.65;9.13;;;;;;;-14.14;60.09;101500.78;5072704;28;20029;-56
2023/01/09 01:34:22;;;;;;;19.08;9.27;;;;;;;-14.27;59.90;101512.19;5071680;28;20381;-57
2023/01/09 01:36:48;;;;;;;21.58;9.88;;;;;;;-14.29;60.31;101514.69;5072683;28;20048;-55
2023/01/09 01:39:13;;;;;;;24.65;10.38;;;;;;;-14.55;60.50;101480.00;5072857;28;20033;-57
2023/01/09 01:41:39;;;;;;;23.50;10.43;;;;;;;-14.42;60.43;101513.22;5072481;28;20028;-58
2023/01/09 01:44:25;;;;;;;23.90;10.15;;;;;;;-14.43;60.43;101506.31;5072692;28;20028;-56
2023/01/09 01:46:52;;;;;;;22.10;10.23;;;;;;;-14.44;60.25;101513.97;5071925;28;20141;-57
2023/01/09 01:49:19;;;;;;;26.73;11.32;;;;;;;-14.38;60.00;101519.41;5072191;28;20461;-59
2023/01/09 01:51:50;;;;;;;28.20;11.35;;;;;;;-14.46;60.07;101513.00;5072541;28;20033;-55
2023/01/09 01:54:22;;;;;;;31.13;12.60;;;;;;;-14.53;60.34;101523.78;5072193;28;20103;-53
2023/01/09 01:56:55;;;;;;;17.88;7.65;;;;;;;-14.53;59.88;101537.53;5072708;28;20098;-53
2023/01/09 01:59:30;;;;;;;30.30;12.05;;;;;;;-14.57;59.49;101533.91;5072111;28;20028;-55
2023/01/09 02:01:58;;;;;;;27.05;12.35;;;;;;;-14.72;59.42;101538.31;5072134;28;20044;-55
2023/01/09 02:04:23;;;;;;;26.90;11.60;;;;;;;-14.73;59.52;101537.47;5072329;28;20479;-56
2023/01/09 02:06:52;;;;;;;22.95;9.13;;;;;;;-15.21;59.93;101488.78;5072247;28;20044;-57
2023/01/09 02:09:21;;;;;;;17.65;8.30;;;;;;;-14.98;59.59;101530.19;5072411;28;20044;-59
2023/01/09 02:11:51;;;;;;;28.95;12.18;;;;;;;-15.06;59.28;101531.50;5072481;28;20024;-54
2023/01/09 02:14:18;;;;;;;24.73;9.85;;;;;;;-15.21;59.87;101527.31;5071701;28;20510;-52
2023/01/09 02:16:46;;;;;;;18.13;7.90;;;;;;;-15.17;59.62;101530.94;5072176;28;20032;-58
2023/01/09 02:19:21;;;;;;;21.77;6.72;;;;;;;-15.30;59.74;101529.41;5072606;28;20041;-58
2023/01/09 02:21:56;;;;;;;29.40;12.30;;;;;;;-15.53;60.16;101534.22;5072336;28;20064;-61
2023/01/09 02:24:41;;;;;;;27.10;10.00;;;;;;;-15.53;59.76;101529.09;5052028;28;20518;-59
2023/01/09 02:27:48;;;;;;;25.58;10.88;;;;;;;-15.57;60.00;101534.88;5052784;28;20040;-58
2023/01/09 02:30:22;;;;;;;25.35;10.32;;;;;;;-15.49;60.19;101531.00;5052062;28;20033;-57
2023/01/09 02:33:19;;;;;;;23.63;10.48;;;;;;;-15.41;59.68;101535.69;5052014;28;20057;-56
2023/01/09 02:36:11;;;;;;;24.23;9.25;;;;;;;-15.39;59.70;101536.66;5049797;28;20057;-54
2023/01/09 02:38:52;;;;;;;16.42;5.78;;;;;;;-15.30;58.65;101538.03;5067485;28;20373;-54
2023/01/09 02:41:27;;;;;;;13.98;5.55;;;;;;;-15.44;58.82;101550.09;5075934;28;20359;-58
2023/01/09 02:44:11;;;;;;;20.02;9.20;;;;;;;-15.65;59.12;101549.84;5076397;28;20024;-58
2023/01/09 02:46:36;;;;;;;22.02;8.13;;;;;;;-15.48;58.48;101548.19;5075858;28;20445;-56
2023/01/09 02:49:02;;;;;;;26.08;11.00;;;;;;;-15.67;58.86;101550.56;5075833;28;20036;-56
2023/01/09 02:51:51;;;;;;;25.55;9.80;;;;;;;-16.05;59.36;101502.41;5075850;28;20104;-55
2023/01/09 02:54:39;;;;;;;22.45;9.40;;;;;;;-15.91;59.43;101540.78;5076328;28;20032;-56
2023/01/09 02:57:17;;;;;;;24.17;9.27;;;;;;;-16.13;59.79;101524.22;5076081;28;20448;-59
2023/01/09 02:59:59;;;;;;;21.10;7.60;;;;;;;-16.02;59.99;101556.47;5074860;28;20032;-59
2023/01/09 03:03:02;;;;;;;15.02;4.70;;;;;;;-15.80;59.14;101555.03;5075410;28;20506;-57
2023/01/09 03:05:34;;;;;;;21.42;8.77;;;;;;;-16.12;58.67;101536.25;5064201;28;20467;-54
2023/01/09 03:08:03;;;;;;;22.33;8.85;;;;;;;-16.17;59.21;101568.41;5075164;28;20029;-54
2023/01/09 03:10:37;;;;;;;20.15;8.18;;;;;;;-16.13;59.54;101569.50;5075377;28;20040;-55
2023/01/09 03:13:04;;;;;;;19.15;7.07;;;;;;;-16.31;59.99;101565.97;5075169;28;20100;-51
2023/01/09 03:15:33;;;;;;;14.57;5.95;;;;;;;-16.29;59.91;101570.31;5075592;28;20334;-53
2023/01/09 03:17:59;;;;;;;23.58;8.93;;;;;;;-16.50;60.12;101532.38;5074227;28;20028;-53
2023/01/09 03:20:28;;;;;;;27.67;9.63;;;;;;;-16.37;60.29;101565.63;5075078;28;20042;-58
2023/01/09 03:22:56;;;;;;;15.20;4.40;;;;;;;-16.14;60.29;101570.28;5075597;28;20478;-59
2023/01/09 03:25:22;;;;;;;20.30;7.32;;;;;;;-16.03;59.43;101571.78;5074750;28;20036;-56
2023/01/09 03:27:53;;;;;;;23.70;8.77;;;;;;;-15.95;59.08;101561.94;5074712;28;20090;-56
2023/01/09 03:30:19;;;;;;;20.25;9.20;;;;;;;-16.00;59.51;101577.09;5073887;28;20411;-59
2023/01/09 03:32:44;;;;;;;23.17;9.18;;;;;;;-16.03;59.43;101582.06;5075280;28;20052;-59
2023/01/09 03:35:10;;;;;;;17.02;7.78;;;;;;;-15.96;59.39;101596.97;5075209;28;20123;-59
2023/01/09 03:37:35;;;;;;;19.17;7.53;;;;;;;-16.00;59.28;101576.19;5074253;28;20060;-57
2023/01/09 03:40:01;;;;;;;12.00;5.50;;;;;;;-16.00;59.26;101579.66;5074780;28;20028;-60
2023/01/09 03:42:28;;;;;;;19.23;6.80;;;;;;;-15.87;58.82;101594.88;5074626;28;20072;-55
2023/01/09 03:44:53;;;;;;;11.88;4.57;;;;;;;-16.00;58.21;101595.06;5074562;28;20063;-58
2023/01/09 03:47:19;;;;;;;24.52;8.23;;;;;;;-16.42;58.93;101556.78;5074678;28;20103;-54
2023/01/09 03:49:44;;;;;;;15.27;6.97;;;;;;;-16.15;58.85;101597.63;5074198;28;20051;-58
2023/01/09 03:52:12;;;;;;;16.10;7.28;;;;;;;-16.15;58.81;101595.06;5074974;28;20459;-55
2023/01/09 03:54:38;;;;;;;22.10;7.78;;;;;;;-16.42;58.79;101559.34;5074763;28;20025;-55
2023/01/09 03:57:04;;;;;;;23.60;8.68;;;;;;;-16.31;59.34;101583.94;5074602;28;20372;-58
2023/01/09 03:59:29;;;;;;;17.10;6.95;;;;;;;-16.21;58.96;101556.22;5074088;28;20067;-59
2023/01/09 04:01:55;;;;;;;19.70;7.65;;;;;;;-16.07;58.50;101586.13;5073346;28;20025;-56
2023/01/09 04:04:20;;;;;;;18.50;7.40;;;;;;;-15.98;58.23;101582.28;5074628;28;20047;-57
2023/01/09 04:06:46;;;;;;;23.98;8.13;;;;;;;-16.03;58.92;101582.06;5074052;28;20112;-61
2023/01/09 04:09:11;;;;;;;19.08;7.35;;;;;;;-16.10;58.74;101579.91;5074747;28;20029;-58
2023/01/09 04:11:37;;;;;;;16.55;6.55;;;;;;;-15.91;58.96;101607.53;5074245;28;20027;-52
2023/01/09 04:14:02;;;;;;;16.85;6.82;;;;;;;-16.04;58.68;101545.22;5073901;28;20036;-53
2023/01/09 04:16:27;;;;;;;17.60;6.70;;;;;;;-15.76;58.51;101592.91;5073675;28;20028;-53
2023/01/09 04:18:53;;;;;;;21.33;7.75;;;;;;;-15.77;58.87;101585.16;5074032;28;20457;-58
2023/01/09 04:21:18;;;;;;;24.67;8.10;;;;;;;-15.67;58.53;101601.91;5074629;28;20036;-59
2023/01/09 04:23:44;;;;;;;22.80;8.55;;;;;;;-15.68;58.40;101595.00;5073717;28;20111;-59
2023/01/09 04:26:09;;;;;;;26.05;8.43;;;;;;;-15.76;58.27;101595.47;5073602;28;20032;-59
2023/01/09 04:28:35;;;;;;;26.17;7.80;;;;;;;-15.71;58.31;101606.00;5074125;28;20059;-57
2023/01/09 04:31:01;;;;;;;19.85;7.70;;;;;;;-15.85;58.38;101597.56;5074291;28;20067;-60
2023/01/09 04:33:27;;;;;;;17.42;7.25;;;;;;;-15.91;58.70;101599.81;5073657;28;20041;-59
2023/01/09 04:35:53;;;;;;;19.98;7.35;;;;;;;-15.88;58.26;101593.13;5073323;28;20040;-59
2023/01/09 04:38:18;;;;;;;23.40;7.72;;;;;;;-15.84;58.58;101611.25;5074070;28;20055;-60
2023/01/09 04:40:47;;;;;;;20.70;7.57;;;;;;;-15.81;58.25;101608.84;5074134;28;20056;-58
2023/01/09 04:43:12;;;;;;;22.45;8.10;;;;;;;-15.95;57.92;101585.03;5073605;28;20028;-59
2023/01/09 04:45:38;;;;;;;17.90;5.80;;;;;;;-15.81;58.52;101612.31;5073241;28;20028;-59
2023/01/09 04:48:04;;;;;;;17.63;7.07;;;;;;;-15.83;58.21;101623.28;5073665;28;20085;-54
2023/01/09 04:50:30;;;;;;;24.50;6.38;;;;;;;-15.82;57.86;101620.81;5073579;28;20365;-52
2023/01/09 04:52:55;;;;;;;14.90;6.35;;;;;;;-15.92;58.23;101628.81;5073445;28;20436;-53
2023/01/09 04:55:21;;;;;;;18.65;7.30;;;;;;;-16.04;57.88;101635.03;5073137;28;20036;-54
2023/01/09 04:57:47;;;;;;;21.17;7.28;;;;;;;-15.90;57.79;101632.38;5073606;28;20021;-63
2023/01/09 05:00:13;;;;;;;23.23;7.35;;;;;;;-15.96;57.41;101629.44;5073931;28;20021;-57
2023/01/09 05:02:39;;;;;;;19.83;5.93;;;;;;;-15.95;57.05;101628.66;5072490;28;20036;-58
2023/01/09 05:05:05;;;;;;;33.15;9.13;;;;;;;-16.08;57.09;101617.72;5071723;28;20027;-56
2023/01/09 05:07:31;;;;;;;16.23;6.65;;;;;;;-16.21;57.79;101625.47;5073484;28;20036;-59
2023/01/09 05:09:57;;;;;;;22.95;7.68;;;;;;;-16.26;57.60;101596.13;5073428;28;20032;-57
2023/01/09 05:12:22;;;;;;;13.85;4.82;;;;;;;-16.03;57.48;101623.97;5073255;28;20024;-56
2023/01/09 05:14:47;;;;;;;25.17;8.65;;;;;;;-16.17;57.30;101607.81;5071248;28;20028;-62
2023/01/09 05:17:13;;;;;;;11.40;4.53;;;;;;;-16.00;57.81;101628.41;5073197;28;20025;-54
2023/01/09 05:19:39;;;;;;;21.63;7.95;;;;;;;-16.09;57.89;101625.31;5072079;28;20032;-63
2023/01/09 05:22:04;;;;;;;12.27;5.05;;;;;;;-15.99;57.52;101624.16;5072683;28;20433;-57
2023/01/09 05:24:30;;;;;;;22.58;8.55;;;;;;;-16.15;58.04;101628.44;5072333;28;20058;-54
2023/01/09 05:26:55;;;;;;;18.10;5.72;;;;;;;-16.07;58.27;101632.31;5072434;28;20099;-61
2023/01/09 05:29:21;;;;;;;18.33;7.13;;;;;;;-15.99;58.02;101626.72;5073044;28;20384;-57
2023/01/09 05:31:46;;;;;;;22.67;8.35;;;;;;;-16.04;57.57;101631.56;5072810;28;20028;-54
2023/01/09 05:34:11;;;;;;;13.40;4.68;;;;;;;-16.13;57.80;101603.75;5072646;28;20049;-58
2023/01/09 05:36:37;;;;;;;14.23;5.70;;;;;;;-15.96;57.02;101629.44;5071734;28;20391;-56
2023/01/09 05:39:04;;;;;;;29.25;9.02;;;;;;;-16.08;58.18;101655.28;5070924;28;20036;-57
2023/01/09 05:41:29;;;;;;;20.90;6.97;;;;;;;-15.93;58.04;101639.88;5071473;28;20409;-57
2023/01/09 05:43:55;;;;;;;22.25;7.35;;;;;;;-15.96;58.12;101635.47;5072727;28;20028;-57
2023/01/09 05:46:20;;;;;;;10.35;2.65;;;;;;;-15.74;57.79;101639.22;5071701;28;20032;-59
2023/01/09 05:48:46;;;;;;;23.25;7.90;;;;;;;-15.62;57.71;101657.00;5072822;28;20025;-58
2023/01/09 05:51:11;;;;;;;22.60;8.38;;;;;;;-15.64;57.74;101640.63;5072355;28;20423;-57
2023/01/09 05:53:37;;;;;;;22.65;6.85;;;;;;;-15.80;57.64;101615.75;5071669;28;20338;-54
2023/01/09 05:56:03;;;;;;;7.30;2.50;;;;;;;-15.51;57.65;101660.16;5072366;28;20033;-58
2023/01/09 05:58:28;;;;;;;25.63;8.48;;;;;;;-15.59;57.32;101647.75;5072319;28;20082;-53
2023/01/09 06:00:53;;;;;;;15.50;5.20;;;;;;;-15.44;56.96;101662.25;5072164;28;20071;-53
2023/01/09 06:03:19;;;;;;;17.48;6.43;;;;;;;-15.49;56.81;101661.13;5072789;28;20029;-57
2023/01/09 06:05:45;;;;;;;23.05;7.65;;;;;;;-15.61;57.62;101661.31;5072080;28;20069;-57
2023/01/09 06:08:10;;;;;;;22.20;7.03;;;;;;;-15.61;57.79;101664.75;5072491;28;20033;-59
2023/01/09 06:10:36;;;;;;;23.02;7.50;;;;;;;-15.60;57.11;101665.66;5071591;28;20441;-58
2023/01/09 06:13:01;;;;;;;17.35;4.68;;;;;;;-15.52;57.94;101661.81;5072024;28;20476;-59
2023/01/09 06:15:27;;;;;;;20.85;7.40;;;;;;;-15.50;56.87;101661.91;5071921;28;20479;-55
2023/01/09 06:17:52;;;;;;;18.10;6.63;;;;;;;-15.58;57.56;101666.63;5072536;28;20033;-56
2023/01/09 06:20:18;;;;;;;15.63;4.57;;;;;;;-15.40;57.00;101671.03;5072440;28;20056;-58
2023/01/09 06:22:44;;;;;;;31.15;8.05;;;;;;;-15.55;56.98;101665.88;5072289;28;20028;-54
2023/01/09 06:25:10;;;;;;;23.25;7.85;;;;;;;-15.63;57.33;101668.94;5072007;28;20191;-56
2023/01/09 06:27:36;;;;;;;8.10;3.92;;;;;;;-15.29;56.66;101675.03;5072518;28;20419;-57
2023/01/09 06:30:01;;;;;;;13.57;4.28;;;;;;;-15.23;56.11;101680.50;5072191;28;20107;-59
2023/01/09 06:32:29;;;;;;;9.82;4.32;;;;;;;-15.36;56.27;101670.38;5072164;28;20043;-57
2023/01/09 06:34:54;;;;;;;23.48;8.30;;;;;;;-15.67;56.89;101679.84;5072433;28;20037;-54
2023/01/09 06:37:20;;;;;;;23.63;8.77;;;;;;;-15.66;57.67;101685.88;5054986;28;20119;-54
2023/01/09 06:39:45;;;;;;;21.30;6.65;;;;;;;-15.49;57.01;101669.69;5070738;28;20040;-58
2023/01/09 06:42:11;;;;;;;25.70;6.90;;;;;;;-15.51;56.98;101655.88;5072132;28;20048;-56
2023/01/09 06:44:36;;;;;;;21.88;6.15;;;;;;;-15.41;56.75;101677.81;5072547;28;20036;-55
2023/01/09 06:47:03;;;;;;;20.75;8.00;;;;;;;-15.30;56.34;101686.13;5069845;28;20037;-58
2023/01/09 06:49:28;;;;;;;24.60;8.73;;;;;;;-15.60;57.12;101650.25;5071737;28;20029;-59
2023/01/09 06:51:53;;;;;;;17.45;5.55;;;;;;;-15.12;56.58;101703.34;5071306;28;20119;-57
2023/01/09 06:54:20;;;;;;;23.30;8.45;;;;;;;-15.25;56.47;101701.81;5072104;28;20412;-58
2023/01/09 06:56:45;;;;;;;25.70;8.38;;;;;;;-15.22;57.01;101705.41;5070757;28;20379;-58
2023/01/09 06:59:11;;;;;;;19.85;7.35;;;;;;;-15.17;56.71;101697.94;5071477;28;20114;-57
2023/01/09 07:01:38;;;;;;;18.08;6.93;;;;;;;-14.96;56.68;101710.19;5071677;28;20044;-56
2023/01/09 07:04:05;;;;;;;23.30;7.05;;;;;;;-14.97;56.83;101711.00;5072001;28;20036;-58
2023/01/09 07:06:31;;;;;;;19.98;6.88;;;;;;;-14.89;56.61;101727.72;5071634;28;20028;-55
2023/01/09 07:08:57;;;;;;;14.95;5.38;;;;;;;-14.76;56.77;101712.16;5070830;28;20449;-57
2023/01/09 07:11:22;;;;;;;18.23;6.15;;;;;;;-14.66;56.08;101710.94;5066135;28;20085;-59
2023/01/09 07:13:47;;;;;;;17.58;5.35;;;;;;;-14.67;55.90;101716.88;5065926;28;20025;-60
2023/01/09 07:16:13;;;;;;;14.50;5.35;;;;;;;-14.57;56.26;101726.81;5070556;28;20059;-60
2023/01/09 07:18:38;;;;;;;12.90;4.75;;;;;;;-14.54;56.17;101709.78;5069946;28;20060;-59
2023/01/09 07:21:07;;;;;;;15.70;5.00;;;;;;;-14.48;55.84;101712.66;5069995;28;20025;-58
2023/01/09 07:23:33;;;;;;;12.18;4.07;;;;;;;-14.29;56.28;101728.25;5069972;28;20028;-57
2023/01/09 07:25:59;;;;;;;23.58;6.88;;;;;;;-14.19;55.09;101721.03;5072493;28;20040;-59
2023/01/09 07:28:24;;;;;;;16.13;6.82;;;;;;;-14.31;55.17;101736.72;5072269;28;20107;-63
2023/01/09 07:30:50;;;;;;;19.38;7.65;;;;;;;-14.25;55.23;101723.25;5073481;28;20124;-60
2023/01/09 07:33:16;;;;;;;11.30;4.13;;;;;;;-14.13;54.87;101723.91;5074214;28;20052;-60
2023/01/09 07:35:41;;;;;;;19.67;7.38;;;;;;;-14.19;55.04;101726.19;5073670;28;20040;-61
2023/01/09 07:38:06;;;;;;;19.48;7.43;;;;;;;-14.16;54.33;101727.19;5073837;28;20123;-59
2023/01/09 07:40:32;;;;;;;18.02;5.90;;;;;;;-14.28;54.85;101722.31;5073863;28;20035;-56
2023/01/09 07:42:58;;;;;;;18.63;6.93;;;;;;;-14.26;54.86;101724.97;5073974;28;20032;-53
2023/01/09 07:45:23;;;;;;;15.18;5.63;;;;;;;-14.31;55.39;101724.72;5074410;28;20081;-58
2023/01/09 07:47:51;;;;;;;13.25;5.75;;;;;;;-14.19;53.83;101744.19;5073399;28;20067;-56
2023/01/09 07:50:17;;;;;;;6.13;2.30;;;;;;;-14.15;53.78;101735.81;5073533;28;20024;-56
2023/01/09 07:52:44;;;;;;;13.35;4.85;;;;;;;-14.14;53.95;101746.19;5072704;28;20029;-59
2023/01/09 07:55:09;;;;;;;15.98;4.97;;;;;;;-14.22;53.92;101737.19;5074616;28;20097;-59
2023/01/09 07:57:35;;;;;;;12.13;4.72;;;;;;;-14.11;53.41;101745.47;5073201;28;20111;-57
2023/01/09 08:00:02;;;;;;;17.50;6.63;;;;;;;-14.19;53.65;101739.91;5074619;28;20024;-56
2023/01/09 08:02:29;;;;;;;21.75;7.50;;;;;;;-14.24;54.41;101699.28;5074322;28;20029;-57
2023/01/09 08:04:55;;;;;;;12.32;5.50;;;;;;;-13.60;52.70;101729.97;5074397;28;20039;-54
2023/01/09 08:07:20;;;;;;;15.85;6.65;;;;;;;-13.62;53.40;101735.84;5073876;28;20032;-54
2023/01/09 08:09:45;;;;;;;11.68;4.97;;;;;;;-13.41;52.64;101736.84;5070436;28;20437;-58
2023/01/09 08:12:11;;;;;;;19.38;7.32;;;;;;;-13.50;52.40;101736.47;5073151;28;20459;-56
2023/01/09 08:14:36;;;;;;;17.30;6.82;;;;;;;-13.62;53.23;101734.16;5073178;28;20029;-58
2023/01/09 08:17:02;;;;;;;13.15;5.63;;;;;;;-13.36;53.62;101749.06;5074137;28;20036;-56
2023/01/09 08:19:27;;;;;;;16.83;6.53;;;;;;;-13.23;52.47;101738.56;5073074;28;20436;-54
2023/01/09 08:21:52;;;;;;;15.30;6.93;;;;;;;-13.17;51.58;101751.72;5074146;28;20021;-59
2023/01/09 08:24:18;;;;;;;18.17;6.97;;;;;;;-13.22;51.84;101745.47;5073598;28;20131;-55
2023/01/09 08:26:43;;;;;;;12.73;5.68;;;;;;;-13.16;52.29;101753.50;5073714;28;20778;-58
2023/01/09 08:29:09;;;;;;;9.13;4.00;;;;;;;-13.00;51.58;101746.50;5073256;28;20116;-57
2023/01/09 08:31:35;;;;;;;15.35;6.85;;;;;;;-13.06;51.26;101741.03;5072398;28;20036;-50
2023/01/09 08:34:01;;;;;;;22.45;7.75;;;;;;;-13.10;51.22;101747.75;5073069;28;20059;-57
2023/01/09 08:36:26;;;;;;;12.25;5.90;;;;;;;-13.10;50.18;101747.75;5072044;28;20036;-54
2023/01/09 08:38:52;;;;;;;18.13;6.53;;;;;;;-13.26;50.43;101738.41;5036473;28;20044;-59
2023/01/09 08:49:29;;;;;;;20.95;7.35;;;;;;;-13.32;51.22;101745.84;5073767;28;20051;-55
2023/01/09 08:51:55;;;;;;;15.25;6.20;;;;;;;-13.12;50.16;101745.09;5073495;28;20402;-59
2023/01/09 08:54:20;;;;;;;13.43;4.78;;;;;;;-13.05;51.14;101742.78;5072735;28;20101;-59
2023/01/09 08:56:46;;;;;;;19.02;7.22;;;;;;;-13.09;51.33;101736.63;5072407;28;20044;-56
2023/01/09 08:59:11;;;;;;;17.33;6.13;;;;;;;-12.97;50.63;101744.06;5073482;28;20028;-58
2023/01/09 09:01:37;;;;;;;12.30;4.13;;;;;;;-13.05;50.47;101748.84;5072875;28;20028;-57
2023/01/09 09:04:04;;;;;;;10.25;3.78;;;;;;;-13.09;49.52;101738.31;5072771;28;20056;-53
2023/01/09 09:06:30;;;;;;;17.10;6.78;;;;;;;-13.58;50.55;101732.59;5073019;28;20036;-57
2023/01/09 09:08:55;;;;;;;17.50;5.45;;;;;;;-13.60;50.92;101729.06;5072963;28;20107;-61
2023/01/09 09:11:21;;;;;;;22.52;7.40;;;;;;;-13.52;51.55;101737.19;5073178;28;20120;-59
2023/01/09 09:13:46;;;;;;;13.80;6.43;;;;;;;-13.34;50.73;101724.25;5072101;28;20412;-56
2023/01/09 09:16:12;;;;;;;7.88;3.83;;;;;;;-13.11;51.02;101730.53;5072451;28;20143;-65
2023/01/09 09:18:37;;;;;;;17.60;7.60;;;;;;;-13.05;50.66;101727.31;5071703;28;20025;-57
2023/01/09 09:21:03;;;;;;;17.45;7.15;;;;;;;-13.00;51.30;101734.47;5072846;28;20036;-63
2023/01/09 09:23:28;;;;;;;16.30;6.82;;;;;;;-12.80;50.59;101723.28;5072434;28;20033;-59
2023/01/09 09:25:53;;;;;;;16.90;7.50;;;;;;;-12.63;49.81;101706.88;5072661;28;20060;-53
2023/01/09 09:28:19;;;;;;;15.68;6.20;;;;;;;-12.63;50.27;101719.78;5071957;28;20119;-55
2023/01/09 09:30:44;;;;;;;13.73;5.35;;;;;;;-12.69;50.03;101709.19;5072227;28;20029;-54
2023/01/09 09:33:10;;;;;;;17.92;7.68;;;;;;;-12.96;51.16;101712.28;5070594;28;20041;-56
2023/01/09 09:35:35;;;;;;;12.40;4.47;;;;;;;-12.95;50.83;101726.06;5072202;28;20180;-53
2023/01/09 09:38:03;;;;;;;14.55;5.63;;;;;;;-13.16;50.60;101732.88;5072205;28;20531;-54
2023/01/09 09:41:05;;;;;;;15.25;6.70;;;;;;;-13.44;52.12;101731.59;5071694;28;20062;-54
2023/01/09 09:46:40;;;;;;;15.18;5.95;;;;;;;-13.50;52.10;101731.31;5071321;28;20058;-56
2023/01/09 09:49:14;;;;;;;19.55;7.63;;;;;;;-13.65;51.93;101702.22;5071243;28;20053;-56
2023/01/09 09:51:59;;;;;;;18.95;6.90;;;;;;;-13.51;52.74;101731.22;5072241;28;20377;-57
2023/01/09 09:54:42;;;;;;;16.40;7.15;;;;;;;-13.51;53.10;101728.63;5071450;28;20033;-55
2023/01/09 09:57:14;;;;;;;10.88;5.38;;;;;;;-13.34;52.72;101724.25;5070492;28;20449;-59
2023/01/09 09:59:41;;;;;;;12.27;5.00;;;;;;;-13.29;52.24;101725.34;5071898;28;20107;-59
2023/01/09 10:02:28;;;;;;;21.80;6.78;;;;;;;-13.45;52.43;101726.34;5072215;28;20068;-57
2023/01/09 10:05:00;;;;;;;7.70;2.97;;;;;;;-13.45;51.27;101724.69;5072213;28;20029;-53
2023/01/09 10:07:33;;;;;;;18.45;7.25;;;;;;;-14.04;52.09;101726.94;5072864;28;20028;-56
2023/01/09 10:10:03;;;;;;;20.02;6.32;;;;;;;-14.14;52.92;101729.88;5071850;28;20457;-58
2023/01/09 10:12:32;;;;;;;11.38;4.53;;;;;;;-14.15;53.23;101733.25;5071191;28;20104;-59
2023/01/09 10:15:00;;;;;;;16.63;6.22;;;;;;;-14.17;52.98;101715.13;5071270;28;20119;-60
2023/01/09 10:17:47;;;;;;;7.78;2.92;;;;;;;-14.08;53.39;101735.31;5072718;28;20036;-57
2023/01/09 10:20:19;;;;;;;16.42;7.22;;;;;;;-14.24;53.51;101733.66;5071831;28;20036;-62
2023/01/09 10:23:19;;;;;;;16.10;6.63;;;;;;;-14.34;53.15;101732.28;5071367;28;20056;-58
2023/01/09 10:25:50;;;;;;;9.55;3.53;;;;;;;-14.23;52.67;101747.38;5072005;28;20036;-56
2023/01/09 10:28:27;;;;;;;15.63;6.22;;;;;;;-14.39;52.77;101741.47;5071716;28;20059;-57
2023/01/09 10:31:31;;;;;;;16.50;6.30;;;;;;;-14.58;53.33;101748.22;5071897;28;20079;-58
2023/01/09 10:34:21;;;;;;;9.77;3.85;;;;;;;-14.49;52.47;101750.38;5072532;28;20045;-55
2023/01/09 10:36:58;;;;;;;18.60;6.30;;;;;;;-14.77;53.10;101748.06;5072389;28;20044;-59
2023/01/09 10:39:51;;;;;;;15.82;5.80;;;;;;;-14.89;54.05;101754.31;5072022;28;20063;-57
2023/01/09 10:42:43;;;;;;;10.57;4.72;;;;;;;-14.74;52.77;101755.94;5071305;28;20031;-57
2023/01/09 10:45:21;;;;;;;13.77;5.20;;;;;;;-14.81;53.15;101767.59;5071978;28;20044;-56
2023/01/09 10:47:47;;;;;;;7.20;2.47;;;;;;;-14.72;53.08;101762.03;5071572;28;20032;-60
2023/01/09 10:50:27;;;;;;;17.73;6.40;;;;;;;-14.84;52.89;101748.53;5070669;28;20037;-61
2023/01/09 10:52:54;;;;;;;12.50;4.68;;;;;;;-15.01;53.41;101745.94;5071636;28;20062;-60
2023/01/09 10:55:34;;;;;;;13.60;6.53;;;;;;;-15.03;53.40;101762.94;5072110;28;20039;-60
2023/01/09 10:58:10;;;;;;;12.32;4.50;;;;;;;-15.01;53.25;101761.34;5071169;28;20040;-57
2023/01/09 11:00:37;;;;;;;15.18;5.70;;;;;;;-15.20;53.03;101747.47;5073047;28;20017;-55
2023/01/09 11:03:02;;;;;;;20.58;6.85;;;;;;;-15.63;52.77;101681.75;5075540;28;20036;-58
2023/01/09 11:05:32;;;;;;;18.63;6.28;;;;;;;-15.39;53.45;101760.97;5075626;28;20025;-60
2023/01/09 11:08:19;;;;;;;9.80;3.70;;;;;;;-15.23;53.37;101755.03;5075184;28;20119;-61
2023/01/09 11:10:45;;;;;;;15.60;4.75;;;;;;;-15.38;53.30;101759.31;5074769;28;20032;-57
2023/01/09 11:13:31;;;;;;;14.20;5.40;;;;;;;-15.46;53.31;101770.03;5074874;28;20035;-54
2023/01/09 11:16:15;;;;;;;10.13;4.40;;;;;;;-15.60;53.67;101766.66;5072849;28;20059;-59
2023/01/09 11:19:14;;;;;;;13.43;5.13;;;;;;;-15.70;54.26;101766.06;5071845;28;20028;-66
2023/01/09 11:21:40;;;;;;;16.70;5.85;;;;;;;-15.75;54.50;101751.28;5074698;28;20032;-56
2023/01/09 11:24:18;;;;;;;11.85;3.75;;;;;;;-15.60;54.56;101763.22;5074690;28;20031;-58
2023/01/09 11:26:45;;;;;;;23.63;6.50;;;;;;;-15.54;54.21;101753.31;5074575;28;20048;-57
2023/01/09 11:29:19;;;;;;;13.32;5.15;;;;;;;-15.50;53.95;101760.38;5054670;28;20477;-58
2023/01/09 11:31:55;;;;;;;;;;;;;;;-15.59;53.94;101765.00;5072622;28;20361;-58